createdAt,value
2023-04-09T00:00:56.682Z,31.46
2023-04-09T00:01:56.690Z,31.45
2023-04-09T00:02:56.805Z,31.45
2023-04-09T00:03:56.734Z,31.46
2023-04-09T00:04:56.706Z,31.47
2023-04-09T00:05:56.715Z,31.48
2023-04-09T00:06:56.708Z,31.45
2023-04-09T00:07:56.725Z,31.48
2023-04-09T00:08:56.740Z,31.47
2023-04-09T00:09:56.752Z,31.45
2023-04-09T00:10:56.752Z,31.48
2023-04-09T00:11:56.824Z,31.47
2023-04-09T00:12:56.771Z,31.51
2023-04-09T00:13:56.790Z,31.47
2023-04-09T00:14:56.811Z,31.48
2023-04-09T00:15:56.891Z,31.49
2023-04-09T00:16:56.847Z,31.49
2023-04-09T00:17:56.880Z,31.49
2023-04-09T00:18:56.872Z,31.50
2023-04-09T00:19:57.860Z,31.50
2023-04-09T00:20:56.851Z,31.49
2023-04-09T00:21:56.854Z,31.51
2023-04-09T00:22:56.900Z,31.48
2023-04-09T00:23:56.810Z,31.49
2023-04-09T00:24:56.791Z,31.49
2023-04-09T00:25:56.784Z,31.49
2023-04-09T00:26:56.768Z,31.49
2023-04-09T00:27:56.757Z,31.48
2023-04-09T00:28:56.752Z,31.50
2023-04-09T00:29:56.826Z,31.50
2023-04-09T00:30:56.718Z,31.50
2023-04-09T00:31:56.763Z,31.51
2023-04-09T00:32:56.774Z,31.50
2023-04-09T00:33:56.682Z,31.52
2023-04-09T00:34:56.667Z,31.52
2023-04-09T00:35:56.791Z,31.49
2023-04-09T00:36:56.714Z,31.51
2023-04-09T00:37:56.632Z,31.51
2023-04-09T00:38:56.618Z,31.52
2023-04-09T00:39:56.608Z,31.51
2023-04-09T00:40:56.595Z,31.53
2023-04-09T00:41:56.580Z,31.54
2023-04-09T00:42:56.598Z,31.53
2023-04-09T00:43:56.591Z,31.54
2023-04-09T00:44:56.609Z,31.55
2023-04-09T00:45:56.648Z,31.55
2023-04-09T00:46:56.640Z,31.53
2023-04-09T00:47:56.694Z,31.53
2023-04-09T00:48:56.684Z,31.53
2023-04-09T00:49:57.254Z,31.55
2023-04-09T00:50:56.735Z,31.58
2023-04-09T00:51:56.720Z,31.57
2023-04-09T00:52:56.742Z,31.56
2023-04-09T00:53:56.774Z,31.55
2023-04-09T00:54:56.775Z,31.58
2023-04-09T00:55:56.797Z,31.58
2023-04-09T00:56:56.814Z,31.57
2023-04-09T00:57:56.839Z,31.57
2023-04-09T00:58:56.870Z,31.60
2023-04-09T00:59:56.882Z,31.58
2023-04-09T01:00:56.962Z,31.60
2023-04-09T01:01:57.297Z,31.60
2023-04-09T01:02:56.981Z,31.59
2023-04-09T01:03:56.936Z,31.60
2023-04-09T01:04:56.954Z,31.56
2023-04-09T01:05:56.976Z,31.56
2023-04-09T01:06:58.759Z,31.58
2023-04-09T01:07:57.068Z,31.58
2023-04-09T01:08:57.113Z,31.59
2023-04-09T01:09:57.080Z,31.58
2023-04-09T01:10:57.063Z,31.62
2023-04-09T01:11:57.076Z,31.57
2023-04-09T01:12:57.089Z,31.60
2023-04-09T01:13:57.112Z,31.61
2023-04-09T01:14:57.134Z,31.57
2023-04-09T01:15:57.147Z,31.57
2023-04-09T01:16:57.203Z,31.57
2023-04-09T01:17:57.239Z,31.57
2023-04-09T01:18:57.222Z,31.58
2023-04-09T01:19:57.215Z,31.60
2023-04-09T01:20:57.217Z,31.58
2023-04-09T01:21:57.223Z,31.59
2023-04-09T01:22:57.265Z,31.56
2023-04-09T01:23:57.255Z,31.59
2023-04-09T01:24:57.257Z,31.59
2023-04-09T01:25:57.269Z,31.60
2023-04-09T01:26:57.311Z,31.57
2023-04-09T01:27:57.302Z,31.58
2023-04-09T01:28:57.312Z,31.60
2023-04-09T01:29:57.328Z,31.60
2023-04-09T01:30:57.388Z,31.60
2023-04-09T01:31:57.346Z,31.57
2023-04-09T01:32:57.393Z,31.59
2023-04-09T01:33:57.346Z,31.58
2023-04-09T01:34:57.364Z,31.58
2023-04-09T01:35:57.387Z,31.58
2023-04-09T01:36:57.398Z,31.59
2023-04-09T01:37:57.551Z,31.57
2023-04-09T01:38:57.450Z,31.59
2023-04-09T01:39:57.436Z,31.57
2023-04-09T01:40:57.438Z,31.58
2023-04-09T01:41:57.588Z,31.59
2023-04-09T01:42:57.467Z,31.55
2023-04-09T01:43:57.473Z,31.61
2023-04-09T01:44:57.494Z,31.58
2023-04-09T01:45:57.540Z,31.60
2023-04-09T01:46:57.562Z,31.60
2023-04-09T01:47:57.609Z,31.57
2023-04-09T01:48:57.637Z,31.60
2023-04-09T01:49:57.572Z,31.58
2023-04-09T01:50:57.566Z,31.60
2023-04-09T01:51:57.589Z,31.60
2023-04-09T01:52:57.606Z,31.58
2023-04-09T01:53:57.628Z,31.59
2023-04-09T01:54:57.630Z,31.60
2023-04-09T01:55:57.637Z,31.58
2023-04-09T01:56:57.659Z,31.60
2023-04-09T01:57:58.288Z,31.58
2023-04-09T01:58:57.686Z,31.58
2023-04-09T01:59:57.691Z,31.60
2023-04-09T02:00:57.765Z,31.58
2023-04-09T02:01:57.759Z,31.60
2023-04-09T02:02:57.796Z,31.61
2023-04-09T02:03:58.064Z,31.59
2023-04-09T02:04:57.752Z,31.60
2023-04-09T02:05:57.758Z,31.61
2023-04-09T02:06:57.764Z,31.60
2023-04-09T02:07:57.774Z,31.60
2023-04-09T02:08:57.793Z,31.61
2023-04-09T02:09:57.794Z,31.60
2023-04-09T02:10:57.814Z,31.58
2023-04-09T02:11:57.828Z,31.59
2023-04-09T02:12:57.846Z,31.60
2023-04-09T02:13:57.859Z,31.60
2023-04-09T02:14:57.869Z,31.62
2023-04-09T02:15:57.952Z,31.64
2023-04-09T02:16:57.891Z,31.61
2023-04-09T02:17:58.023Z,31.61
2023-04-09T02:18:57.997Z,31.61
2023-04-09T02:19:57.933Z,31.62
2023-04-09T02:20:57.950Z,31.62
2023-04-09T02:21:57.955Z,31.64
2023-04-09T02:22:57.979Z,31.63
2023-04-09T02:23:57.977Z,31.60
2023-04-09T02:24:58.049Z,31.63
2023-04-09T02:25:58.006Z,31.60
2023-04-09T02:26:58.018Z,31.63
2023-04-09T02:27:58.031Z,31.62
2023-04-09T02:28:58.051Z,31.64
2023-04-09T02:29:58.064Z,31.62
2023-04-09T02:30:58.082Z,31.62
2023-04-09T02:31:58.094Z,31.64
2023-04-09T02:32:58.128Z,31.60
2023-04-09T02:33:58.250Z,31.64
2023-04-09T02:34:58.120Z,31.61
2023-04-09T02:35:58.203Z,31.63
2023-04-09T02:36:58.279Z,31.63
2023-04-09T02:37:58.192Z,31.63
2023-04-09T02:38:58.194Z,31.63
2023-04-09T02:39:58.395Z,31.61
2023-04-09T02:40:58.228Z,31.61
2023-04-09T02:41:58.246Z,31.64
2023-04-09T02:42:58.268Z,31.62
2023-04-09T02:43:58.296Z,31.64
2023-04-09T02:44:58.298Z,31.63
2023-04-09T02:45:58.321Z,31.64
2023-04-09T02:46:58.303Z,31.64
2023-04-09T02:47:58.336Z,31.62
2023-04-09T02:48:58.321Z,31.63
2023-04-09T02:49:58.446Z,31.62
2023-04-09T02:50:58.362Z,31.64
2023-04-09T02:51:58.381Z,31.62
2023-04-09T02:52:58.377Z,31.65
2023-04-09T02:53:58.388Z,31.65
2023-04-09T02:54:58.415Z,31.63
2023-04-09T02:55:58.435Z,31.65
2023-04-09T02:56:58.494Z,31.67
2023-04-09T02:57:58.444Z,31.65
2023-04-09T02:58:58.455Z,31.64
2023-04-09T02:59:58.474Z,31.65
2023-04-09T03:00:58.504Z,31.63
2023-04-09T03:01:58.696Z,31.63
2023-04-09T03:02:58.627Z,31.65
2023-04-09T03:03:58.685Z,31.64
2023-04-09T03:04:58.544Z,31.65
2023-04-09T03:05:58.567Z,31.64
2023-04-09T03:06:58.579Z,31.63
2023-04-09T03:07:58.585Z,31.64
2023-04-09T03:08:58.596Z,31.62
2023-04-09T03:09:58.612Z,31.65
2023-04-09T03:10:58.627Z,31.65
2023-04-09T03:11:58.639Z,31.64
2023-04-09T03:12:58.653Z,31.63
2023-04-09T03:13:58.655Z,31.65
2023-04-09T03:14:58.682Z,31.64
2023-04-09T03:15:58.684Z,31.65
2023-04-09T03:16:58.687Z,31.65
2023-04-09T03:17:58.746Z,31.66
2023-04-09T03:18:58.722Z,31.64
2023-04-09T03:19:58.731Z,31.64
2023-04-09T03:20:58.741Z,31.64
2023-04-09T03:21:58.766Z,31.63
2023-04-09T03:22:58.778Z,31.64
2023-04-09T03:23:58.783Z,31.64
2023-04-09T03:24:58.795Z,31.62
2023-04-09T03:25:58.805Z,31.64
2023-04-09T03:26:58.813Z,31.61
2023-04-09T03:27:58.828Z,31.63
2023-04-09T03:28:58.842Z,31.64
2023-04-09T03:29:58.840Z,31.63
2023-04-09T03:30:58.854Z,31.62
2023-04-09T03:31:58.853Z,31.62
2023-04-09T03:32:58.918Z,31.64
2023-04-09T03:33:58.868Z,31.62
2023-04-09T03:34:59.854Z,31.62
2023-04-09T03:35:59.006Z,31.65
2023-04-09T03:36:59.063Z,31.64
2023-04-09T03:37:58.920Z,31.63
2023-04-09T03:38:58.921Z,31.61
2023-04-09T03:39:58.996Z,31.63
2023-04-09T03:40:59.033Z,31.62
2023-04-09T03:41:59.008Z,31.62
2023-04-09T03:42:58.937Z,31.63
2023-04-09T03:43:58.946Z,31.65
2023-04-09T03:44:58.957Z,31.65
2023-04-09T03:45:58.963Z,31.64
2023-04-09T03:46:58.996Z,31.65
2023-04-09T03:47:59.046Z,31.66
2023-04-09T03:48:59.374Z,31.63
2023-04-09T03:49:58.986Z,31.64
2023-04-09T03:50:59.071Z,31.64
2023-04-09T03:51:59.043Z,31.65
2023-04-09T03:52:59.049Z,31.64
2023-04-09T03:53:59.026Z,31.65
2023-04-09T03:54:59.036Z,31.66
2023-04-09T03:55:59.066Z,31.65
2023-04-09T03:56:59.061Z,31.64
2023-04-09T03:57:59.069Z,31.62
2023-04-09T03:58:59.169Z,31.64
2023-04-09T03:59:59.121Z,31.66
2023-04-09T04:00:59.141Z,31.65
2023-04-09T04:01:59.164Z,31.66
2023-04-09T04:02:59.333Z,31.66
2023-04-09T04:03:59.241Z,31.63
2023-04-09T04:04:59.138Z,31.63
2023-04-09T04:05:59.146Z,31.66
2023-04-09T04:06:59.178Z,31.67
2023-04-09T04:07:59.181Z,31.65
2023-04-09T04:08:59.300Z,31.66
2023-04-09T04:09:59.221Z,31.65
2023-04-09T04:10:59.210Z,31.67
2023-04-09T04:11:59.216Z,31.64
2023-04-09T04:12:59.266Z,31.65
2023-04-09T04:13:59.267Z,31.66
2023-04-09T04:14:59.274Z,31.67
2023-04-09T04:15:59.293Z,31.65
2023-04-09T04:16:59.267Z,31.67
2023-04-09T04:17:59.309Z,31.67
2023-04-09T04:18:59.295Z,31.65
2023-04-09T04:19:59.342Z,31.65
2023-04-09T04:20:59.324Z,31.69
2023-04-09T04:21:59.338Z,31.66
2023-04-09T04:22:59.340Z,31.66
2023-04-09T04:23:59.342Z,31.68
2023-04-09T04:24:59.353Z,31.67
2023-04-09T04:26:00.268Z,31.67
2023-04-09T04:26:59.374Z,31.64
2023-04-09T04:27:59.389Z,31.67
2023-04-09T04:28:59.387Z,31.67
2023-04-09T04:29:59.424Z,31.65
2023-04-09T04:30:59.402Z,31.65
2023-04-09T04:31:59.472Z,31.66
2023-04-09T04:32:59.479Z,31.65
2023-04-09T04:33:59.428Z,31.67
2023-04-09T04:34:59.537Z,31.65
2023-04-09T04:35:59.490Z,31.68
2023-04-09T04:36:59.448Z,31.65
2023-04-09T04:37:59.444Z,31.65
2023-04-09T04:38:59.463Z,31.64
2023-04-09T04:39:59.457Z,31.68
2023-04-09T04:40:59.471Z,31.67
2023-04-09T04:41:59.471Z,31.66
2023-04-09T04:42:59.489Z,31.68
2023-04-09T04:43:59.503Z,31.66
2023-04-09T04:44:59.506Z,31.66
2023-04-09T04:45:59.530Z,31.67
2023-04-09T04:46:59.514Z,31.67
2023-04-09T04:47:59.563Z,31.67
2023-04-09T04:48:59.523Z,31.67
2023-04-09T04:49:59.532Z,31.67
2023-04-09T04:50:59.539Z,31.66
2023-04-09T04:51:59.551Z,31.66
2023-04-09T04:52:59.554Z,31.66
2023-04-09T04:53:59.624Z,31.67
2023-04-09T04:54:59.561Z,31.66
2023-04-09T04:55:59.572Z,31.68
2023-04-09T04:56:59.578Z,31.65
2023-04-09T04:57:59.580Z,31.64
2023-04-09T04:58:59.599Z,31.66
2023-04-09T05:00:00.457Z,31.65
2023-04-09T05:00:59.656Z,31.64
2023-04-09T05:01:59.687Z,31.66
2023-04-09T05:02:59.786Z,31.65
2023-04-09T05:03:59.643Z,31.64
2023-04-09T05:04:59.604Z,31.65
2023-04-09T05:05:59.607Z,31.65
2023-04-09T05:06:59.613Z,31.62
2023-04-09T05:07:59.615Z,31.66
2023-04-09T05:08:59.639Z,31.64
2023-04-09T05:09:59.640Z,31.65
2023-04-09T05:10:59.645Z,31.63
2023-04-09T05:11:59.657Z,31.65
2023-04-09T05:12:59.657Z,31.64
2023-04-09T05:14:00.448Z,31.65
2023-04-09T05:14:59.654Z,31.65
2023-04-09T05:15:59.663Z,31.63
2023-04-09T05:16:59.795Z,31.63
2023-04-09T05:17:59.741Z,31.64
2023-04-09T05:18:59.680Z,31.66
2023-04-09T05:19:59.716Z,31.65
2023-04-09T05:20:59.701Z,31.64
2023-04-09T05:21:59.708Z,31.62
2023-04-09T05:22:59.710Z,31.63
2023-04-09T05:23:59.721Z,31.63
2023-04-09T05:24:59.730Z,31.63
2023-04-09T05:25:59.726Z,31.63
2023-04-09T05:26:59.734Z,31.63
2023-04-09T05:27:59.734Z,31.64
2023-04-09T05:28:59.766Z,31.63
2023-04-09T05:30:00.917Z,31.62
2023-04-09T05:30:59.810Z,31.63
2023-04-09T05:31:59.736Z,31.61
2023-04-09T05:32:59.780Z,31.62
2023-04-09T05:33:59.741Z,31.64
2023-04-09T05:34:59.738Z,31.63
2023-04-09T05:35:59.762Z,31.64
2023-04-09T05:36:59.741Z,31.60
2023-04-09T05:37:59.734Z,31.62
2023-04-09T05:38:59.767Z,31.60
2023-04-09T05:39:59.711Z,31.62
2023-04-09T05:40:59.741Z,31.61
2023-04-09T05:41:59.778Z,31.60
2023-04-09T05:42:59.758Z,31.61
2023-04-09T05:44:00.961Z,31.63
2023-04-09T05:44:59.741Z,31.62
2023-04-09T05:45:59.740Z,31.60
2023-04-09T05:46:59.736Z,31.61
2023-04-09T05:47:59.789Z,31.59
2023-04-09T05:49:00.361Z,31.60
2023-04-09T05:49:59.738Z,31.60
2023-04-09T05:51:00.935Z,31.58
2023-04-09T05:51:59.738Z,31.57
2023-04-09T05:52:59.740Z,31.58
2023-04-09T05:53:59.743Z,31.59
2023-04-09T05:54:59.742Z,31.59
2023-04-09T05:55:59.789Z,31.57
2023-04-09T05:56:59.832Z,31.57
2023-04-09T05:57:59.743Z,31.60
2023-04-09T05:58:59.746Z,31.57
2023-04-09T05:59:59.738Z,31.57
2023-04-09T06:00:59.745Z,31.55
2023-04-09T06:01:59.847Z,31.57
2023-04-09T06:02:59.814Z,31.55
2023-04-09T06:04:00.121Z,31.55
2023-04-09T06:04:59.799Z,31.54
2023-04-09T06:05:59.755Z,31.54
2023-04-09T06:06:59.747Z,31.55
2023-04-09T06:07:59.755Z,31.56
2023-04-09T06:08:59.755Z,31.53
2023-04-09T06:09:59.741Z,31.53
2023-04-09T06:10:59.747Z,31.54
2023-04-09T06:11:59.741Z,31.53
2023-04-09T06:12:59.756Z,31.53
2023-04-09T06:14:00.407Z,31.52
2023-04-09T06:14:59.735Z,31.54
2023-04-09T06:15:59.754Z,31.51
2023-04-09T06:16:59.724Z,31.53
2023-04-09T06:17:59.769Z,31.51
2023-04-09T06:18:59.720Z,31.51
2023-04-09T06:19:59.723Z,31.52
2023-04-09T06:20:59.730Z,31.50
2023-04-09T06:21:59.736Z,31.52
2023-04-09T06:22:59.735Z,31.49
2023-04-09T06:23:59.884Z,31.50
2023-04-09T06:24:59.740Z,31.50
2023-04-09T06:25:59.734Z,31.52
2023-04-09T06:26:59.799Z,31.49
2023-04-09T06:27:59.722Z,31.49
2023-04-09T06:28:59.714Z,31.49
2023-04-09T06:29:59.714Z,31.48
2023-04-09T06:30:59.774Z,31.46
2023-04-09T06:31:59.700Z,31.47
2023-04-09T06:32:59.756Z,31.47
2023-04-09T06:33:59.692Z,31.45
2023-04-09T06:34:59.701Z,31.46
2023-04-09T06:35:59.701Z,31.45
2023-04-09T06:36:59.694Z,31.45
2023-04-09T06:37:59.699Z,31.45
2023-04-09T06:38:59.737Z,31.46
2023-04-09T06:40:01.277Z,31.43
2023-04-09T06:40:59.718Z,31.46
2023-04-09T06:41:59.751Z,31.45
2023-04-09T06:42:59.724Z,31.43
2023-04-09T06:43:59.718Z,31.43
2023-04-09T06:44:59.708Z,31.45
2023-04-09T06:45:59.716Z,31.45
2023-04-09T06:46:59.725Z,31.44
2023-04-09T06:47:59.935Z,31.43
2023-04-09T06:48:59.741Z,31.41
2023-04-09T06:49:59.746Z,31.43
2023-04-09T06:50:59.745Z,31.44
2023-04-09T06:51:59.762Z,31.43
2023-04-09T06:52:59.796Z,31.44
2023-04-09T06:53:59.864Z,31.44
2023-04-09T06:54:59.792Z,31.41
2023-04-09T06:55:59.824Z,31.43
2023-04-09T06:56:59.924Z,31.41
2023-04-09T06:57:59.806Z,31.40
2023-04-09T06:58:59.822Z,31.40
2023-04-09T06:59:59.806Z,31.39
2023-04-09T07:01:00.035Z,31.39
2023-04-09T07:01:59.854Z,31.42
2023-04-09T07:02:59.903Z,31.38
2023-04-09T07:04:00.000Z,31.38
2023-04-09T07:04:59.827Z,31.39
2023-04-09T07:05:59.823Z,31.39
2023-04-09T07:06:59.796Z,31.37
2023-04-09T07:07:59.790Z,31.38
2023-04-09T07:08:59.780Z,31.38
2023-04-09T07:09:59.766Z,31.37
2023-04-09T07:10:59.760Z,31.35
2023-04-09T07:11:59.766Z,31.35
2023-04-09T07:12:59.763Z,31.37
2023-04-09T07:13:59.753Z,31.36
2023-04-09T07:14:59.740Z,31.35
2023-04-09T07:15:59.748Z,31.36
2023-04-09T07:16:59.740Z,31.39
2023-04-09T07:17:59.774Z,31.36
2023-04-09T07:18:59.746Z,31.35
2023-04-09T07:19:59.745Z,31.36
2023-04-09T07:21:00.186Z,31.35
2023-04-09T07:21:59.779Z,31.37
2023-04-09T07:22:59.813Z,31.37
2023-04-09T07:23:59.808Z,31.35
2023-04-09T07:24:59.792Z,31.34
2023-04-09T07:25:59.773Z,31.34
2023-04-09T07:26:59.787Z,31.34
2023-04-09T07:27:59.774Z,31.36
2023-04-09T07:28:59.774Z,31.34
2023-04-09T07:29:59.770Z,31.34
2023-04-09T07:30:59.757Z,31.31
2023-04-09T07:31:59.759Z,31.33
2023-04-09T07:32:59.753Z,31.35
2023-04-09T07:33:59.704Z,31.33
2023-04-09T07:35:00.359Z,31.32
2023-04-09T07:35:59.681Z,31.33
2023-04-09T07:36:59.664Z,31.34
2023-04-09T07:37:59.651Z,31.32
2023-04-09T07:38:59.666Z,31.32
2023-04-09T07:39:59.674Z,31.31
2023-04-09T07:40:59.652Z,31.32
2023-04-09T07:41:59.651Z,31.31
2023-04-09T07:42:59.644Z,31.30
2023-04-09T07:43:59.630Z,31.29
2023-04-09T07:44:59.815Z,31.31
2023-04-09T07:45:59.603Z,31.30
2023-04-09T07:46:59.626Z,31.29
2023-04-09T07:47:59.681Z,31.29
2023-04-09T07:48:59.623Z,31.27
2023-04-09T07:49:59.592Z,31.27
2023-04-09T07:50:59.660Z,31.27
2023-04-09T07:51:59.584Z,31.30
2023-04-09T07:52:59.572Z,31.27
2023-04-09T07:53:59.560Z,31.29
2023-04-09T07:54:59.539Z,31.27
2023-04-09T07:55:59.544Z,31.26
2023-04-09T07:56:59.530Z,31.25
2023-04-09T07:57:59.502Z,31.26
2023-04-09T07:58:59.500Z,31.23
2023-04-09T07:59:59.487Z,31.26
2023-04-09T08:00:59.479Z,31.24
2023-04-09T08:01:59.623Z,31.23
2023-04-09T08:02:59.678Z,31.22
2023-04-09T08:03:59.580Z,31.21
2023-04-09T08:04:59.614Z,31.24
2023-04-09T08:05:59.459Z,31.23
2023-04-09T08:06:59.455Z,31.23
2023-04-09T08:07:59.440Z,31.24
2023-04-09T08:08:59.424Z,31.22
2023-04-09T08:09:59.415Z,31.20
2023-04-09T08:10:59.407Z,31.21
2023-04-09T08:11:59.416Z,31.20
2023-04-09T08:12:59.561Z,31.24
2023-04-09T08:13:59.419Z,31.18
2023-04-09T08:14:59.352Z,31.20
2023-04-09T08:15:59.386Z,31.20
2023-04-09T08:16:59.410Z,31.19
2023-04-09T08:17:59.468Z,31.21
2023-04-09T08:18:59.358Z,31.17
2023-04-09T08:19:59.353Z,31.17
2023-04-09T08:20:59.489Z,31.18
2023-04-09T08:21:59.328Z,31.16
2023-04-09T08:22:59.337Z,31.16
2023-04-09T08:23:59.315Z,31.14
2023-04-09T08:25:00.252Z,31.14
2023-04-09T08:25:59.293Z,31.12
2023-04-09T08:26:59.264Z,31.14
2023-04-09T08:27:59.236Z,31.12
2023-04-09T08:28:59.387Z,31.10
2023-04-09T08:29:59.208Z,31.09
2023-04-09T08:30:59.183Z,31.06
2023-04-09T08:32:00.006Z,31.03
2023-04-09T08:32:59.235Z,31.04
2023-04-09T08:33:59.116Z,31.00
2023-04-09T08:34:59.383Z,31.04
2023-04-09T08:35:59.927Z,31.00
2023-04-09T08:36:59.110Z,31.01
2023-04-09T08:37:59.088Z,30.98
2023-04-09T08:38:59.028Z,30.99
2023-04-09T08:39:59.005Z,31.01
2023-04-09T08:40:59.057Z,31.00
2023-04-09T08:41:59.064Z,30.98
2023-04-09T08:42:58.951Z,30.94
2023-04-09T08:43:59.710Z,30.95
2023-04-09T08:44:59.042Z,30.93
2023-04-09T08:45:59.009Z,30.92
2023-04-09T08:46:59.714Z,30.91
2023-04-09T08:47:58.911Z,30.88
2023-04-09T08:48:58.921Z,30.91
2023-04-09T08:49:58.975Z,30.85
2023-04-09T08:50:59.021Z,30.83
2023-04-09T08:51:59.058Z,30.86
2023-04-09T08:52:59.099Z,30.83
2023-04-09T08:54:00.189Z,30.80
2023-04-09T08:54:59.192Z,30.84
2023-04-09T08:55:59.136Z,30.83
2023-04-09T08:56:59.076Z,30.79
2023-04-09T08:57:59.081Z,30.79
2023-04-09T08:58:59.034Z,30.79
2023-04-09T08:59:59.028Z,30.77
2023-04-09T09:00:59.020Z,30.76
2023-04-09T09:01:59.102Z,30.75
2023-04-09T09:02:59.065Z,30.76
2023-04-09T09:03:59.041Z,30.76
2023-04-09T09:04:58.909Z,30.76
2023-04-09T09:05:58.891Z,30.77
2023-04-09T09:06:58.866Z,30.74
2023-04-09T09:07:58.987Z,30.75
2023-04-09T09:08:58.839Z,30.72
2023-04-09T09:09:58.847Z,30.72
2023-04-09T09:10:58.856Z,30.72
2023-04-09T09:11:58.782Z,30.74
2023-04-09T09:12:58.758Z,30.70
2023-04-09T09:13:58.732Z,30.74
2023-04-09T09:14:58.718Z,30.73
2023-04-09T09:15:58.688Z,30.74
2023-04-09T09:16:58.717Z,30.72
2023-04-09T09:17:58.676Z,30.73
2023-04-09T09:18:58.784Z,30.74
2023-04-09T09:19:58.767Z,30.74
2023-04-09T09:20:58.590Z,30.77
2023-04-09T09:21:58.569Z,30.76
2023-04-09T09:22:58.546Z,30.76
2023-04-09T09:23:58.542Z,30.77
2023-04-09T09:24:58.554Z,30.76
2023-04-09T09:25:58.507Z,30.79
2023-04-09T09:26:58.456Z,30.78
2023-04-09T09:27:58.438Z,30.77
2023-04-09T09:28:58.420Z,30.77
2023-04-09T09:29:58.589Z,30.79
2023-04-09T09:30:58.413Z,30.76
2023-04-09T09:31:58.375Z,30.79
2023-04-09T09:32:58.379Z,30.78
2023-04-09T09:33:58.339Z,30.78
2023-04-09T09:34:58.393Z,30.80
2023-04-09T09:35:58.964Z,30.79
2023-04-09T09:36:58.471Z,30.80
2023-04-09T09:37:58.645Z,30.80
2023-04-09T09:38:58.551Z,30.78
2023-04-09T09:39:58.592Z,30.78
2023-04-09T09:40:58.641Z,30.75
2023-04-09T09:41:58.690Z,30.74
2023-04-09T09:42:58.723Z,30.73
2023-04-09T09:43:58.740Z,30.74
2023-04-09T09:44:59.032Z,30.73
2023-04-09T09:45:58.857Z,30.76
2023-04-09T09:46:58.875Z,30.76
2023-04-09T09:47:58.922Z,30.74
2023-04-09T09:48:58.927Z,30.74
2023-04-09T09:49:59.025Z,30.75
2023-04-09T09:50:59.006Z,30.74
2023-04-09T09:51:59.050Z,30.74
2023-04-09T09:52:59.188Z,30.74
2023-04-09T09:53:59.133Z,30.73
2023-04-09T09:54:59.216Z,30.75
2023-04-09T09:55:59.263Z,30.74
2023-04-09T09:56:59.351Z,30.74
2023-04-09T09:57:59.257Z,30.75
2023-04-09T09:58:59.298Z,30.74
2023-04-09T09:59:59.337Z,30.75
2023-04-09T10:00:59.401Z,30.73
2023-04-09T10:01:59.502Z,30.73
2023-04-09T10:02:59.699Z,30.75
2023-04-09T10:03:59.494Z,30.73
2023-04-09T10:04:59.532Z,30.76
2023-04-09T10:05:59.570Z,30.72
2023-04-09T10:06:59.613Z,30.75
2023-04-09T10:08:00.535Z,30.73
2023-04-09T10:08:59.694Z,30.74
2023-04-09T10:09:59.743Z,30.73
2023-04-09T10:10:59.769Z,30.74
2023-04-09T10:11:59.817Z,30.74
2023-04-09T10:12:59.861Z,30.71
2023-04-09T10:13:59.897Z,30.71
2023-04-09T10:14:59.944Z,30.72
2023-04-09T10:16:01.131Z,30.72
2023-04-09T10:17:00.022Z,30.72
2023-04-09T10:18:00.261Z,30.72
2023-04-09T10:19:00.155Z,30.70
2023-04-09T10:20:00.167Z,30.71
2023-04-09T10:21:00.156Z,30.68
2023-04-09T10:22:00.173Z,30.70
2023-04-09T10:23:00.217Z,30.71
2023-04-09T10:24:00.269Z,30.69
2023-04-09T10:25:00.280Z,30.69
2023-04-09T10:26:00.447Z,30.72
2023-04-09T10:27:00.357Z,30.69
2023-04-09T10:28:00.387Z,30.70
2023-04-09T10:29:00.438Z,30.71
2023-04-09T10:30:01.097Z,30.72
2023-04-09T10:31:00.745Z,30.70
2023-04-09T10:32:00.557Z,30.72
2023-04-09T10:33:00.646Z,30.68
2023-04-09T10:34:00.618Z,30.72
2023-04-09T10:35:00.662Z,30.69
2023-04-09T10:36:00.768Z,30.70
2023-04-09T10:37:00.756Z,30.68
2023-04-09T10:38:00.789Z,30.70
2023-04-09T10:39:00.827Z,30.69
2023-04-09T10:40:00.871Z,30.71
2023-04-09T10:41:00.912Z,30.70
2023-04-09T10:42:00.952Z,30.70
2023-04-09T10:43:00.993Z,30.68
2023-04-09T10:44:01.026Z,30.71
2023-04-09T10:45:01.137Z,30.72
2023-04-09T10:46:01.151Z,30.71
2023-04-09T10:47:01.140Z,30.70
2023-04-09T10:48:01.234Z,30.71
2023-04-09T10:49:01.243Z,30.69
2023-04-09T10:50:01.266Z,30.67
2023-04-09T10:51:01.318Z,30.67
2023-04-09T10:52:01.364Z,30.69
2023-04-09T10:53:01.557Z,30.68
2023-04-09T10:54:01.456Z,30.68
2023-04-09T10:55:01.505Z,30.71
2023-04-09T10:56:01.584Z,30.72
2023-04-09T10:57:01.594Z,30.69
2023-04-09T10:58:02.536Z,30.72
2023-04-09T10:59:01.671Z,30.72
2023-04-09T11:00:01.718Z,30.69
2023-04-09T11:01:02.509Z,30.74
2023-04-09T11:02:01.885Z,30.71
2023-04-09T11:03:02.178Z,30.75
2023-04-09T11:04:01.917Z,30.74
2023-04-09T11:05:02.087Z,30.72
2023-04-09T11:06:02.050Z,30.76
2023-04-09T11:07:01.973Z,30.74
2023-04-09T11:08:02.020Z,30.75
2023-04-09T11:09:02.060Z,30.76
2023-04-09T11:10:02.118Z,30.76
2023-04-09T11:11:02.416Z,30.74
2023-04-09T11:12:02.188Z,30.76
2023-04-09T11:13:02.225Z,30.74
2023-04-09T11:14:02.279Z,30.78
2023-04-09T11:15:02.308Z,30.78
2023-04-09T11:16:02.350Z,30.77
2023-04-09T11:17:02.371Z,30.79
2023-04-09T11:18:02.488Z,30.76
2023-04-09T11:19:02.458Z,30.78
2023-04-09T11:20:02.514Z,30.76
2023-04-09T11:21:02.550Z,30.80
2023-04-09T11:22:02.584Z,30.80
2023-04-09T11:23:02.634Z,30.78
2023-04-09T11:24:02.690Z,30.80
2023-04-09T11:25:02.714Z,30.78
2023-04-09T11:26:02.777Z,30.79
2023-04-09T11:27:02.960Z,30.77
2023-04-09T11:28:02.820Z,30.80
2023-04-09T11:29:02.995Z,30.80
2023-04-09T11:30:02.913Z,30.78
2023-04-09T11:31:03.024Z,30.78
2023-04-09T11:32:02.991Z,30.76
2023-04-09T11:33:03.127Z,30.78
2023-04-09T11:34:03.060Z,30.77
2023-04-09T11:35:03.100Z,30.78
2023-04-09T11:36:04.091Z,30.80
2023-04-09T11:37:03.061Z,30.79
2023-04-09T11:38:04.044Z,30.81
2023-04-09T11:39:03.008Z,30.80
2023-04-09T11:40:02.984Z,30.82
2023-04-09T11:41:02.972Z,30.82
2023-04-09T11:42:02.956Z,30.81
2023-04-09T11:43:02.937Z,30.81
2023-04-09T11:44:02.921Z,30.82
2023-04-09T11:45:02.930Z,30.81
2023-04-09T11:46:02.976Z,30.82
2023-04-09T11:47:04.742Z,30.84
2023-04-09T11:48:03.256Z,30.85
2023-04-09T11:49:03.116Z,30.85
2023-04-09T11:50:03.165Z,30.85
2023-04-09T11:51:03.177Z,30.81
2023-04-09T11:52:03.217Z,30.83
2023-04-09T11:53:03.270Z,30.81
2023-04-09T11:54:03.340Z,30.82
2023-04-09T11:55:03.325Z,30.80
2023-04-09T11:56:03.543Z,30.82
2023-04-09T11:57:03.436Z,30.83
2023-04-09T11:58:03.486Z,30.85
2023-04-09T11:59:03.501Z,30.87
2023-04-09T12:00:05.361Z,30.85
2023-04-09T12:01:03.589Z,30.86
2023-04-09T12:02:03.701Z,30.88
2023-04-09T12:03:04.096Z,30.88
2023-04-09T12:04:04.049Z,30.87
2023-04-09T12:05:03.807Z,30.89
2023-04-09T12:06:04.150Z,30.88
2023-04-09T12:07:03.843Z,30.87
2023-04-09T12:08:03.884Z,30.88
2023-04-09T12:09:03.925Z,30.88
2023-04-09T12:10:03.973Z,30.89
2023-04-09T12:11:04.040Z,30.87
2023-04-09T12:12:05.045Z,30.88
2023-04-09T12:13:04.149Z,30.91
2023-04-09T12:14:04.130Z,30.93
2023-04-09T12:15:04.340Z,30.93
2023-04-09T12:16:04.279Z,30.90
2023-04-09T12:17:04.322Z,30.90
2023-04-09T12:18:04.438Z,30.89
2023-04-09T12:19:04.359Z,30.91
2023-04-09T12:20:04.403Z,30.92
2023-04-09T12:21:04.462Z,30.92
2023-04-09T12:22:04.490Z,30.93
2023-04-09T12:23:04.559Z,30.92
2023-04-09T12:24:04.577Z,30.93
2023-04-09T12:25:04.611Z,30.94
2023-04-09T12:26:04.662Z,30.94
2023-04-09T12:27:04.714Z,30.91
2023-04-09T12:28:04.754Z,30.95
2023-04-09T12:29:04.804Z,30.91
2023-04-09T12:30:04.842Z,30.90
2023-04-09T12:31:04.990Z,30.89
2023-04-09T12:32:05.006Z,30.89
2023-04-09T12:33:05.068Z,30.88
2023-04-09T12:34:05.016Z,30.92
2023-04-09T12:35:05.059Z,30.88
2023-04-09T12:36:05.129Z,30.92
2023-04-09T12:37:05.146Z,30.90
2023-04-09T12:38:05.190Z,30.90
2023-04-09T12:39:05.244Z,30.89
2023-04-09T12:40:05.294Z,30.87
2023-04-09T12:41:06.150Z,30.89
2023-04-09T12:42:05.397Z,30.86
2023-04-09T12:43:05.442Z,30.86
2023-04-09T12:44:05.467Z,30.88
2023-04-09T12:45:05.519Z,30.87
2023-04-09T12:46:05.584Z,30.85
2023-04-09T12:47:05.620Z,30.86
2023-04-09T12:48:05.655Z,30.83
2023-04-09T12:49:05.687Z,30.84
2023-04-09T12:50:05.798Z,30.83
2023-04-09T12:51:05.780Z,30.84
2023-04-09T12:52:06.599Z,30.84
2023-04-09T12:53:05.862Z,30.84